(°C)
27°
26°
26°
25°
25°
24°
24°
(°C)
31°
30°
29°
28°
28°
27°
26°
NNO
N
N
NNE
NNE
NNE
NNE
(km/h)
8-15
8-17
8-19
8-20
8-20
8-19
8-18
(mm)
0
0
0
0
0
0
0
(%)
25
18
11
4
3
2
0

Elevação do sol

/ -12.1°
sun-icon
UV 7
07:17
19:27
Minguante gibosa (209°)
21:12
09:35

METAR para Tampa (KTPF)

Hora Condições Temperatura/
Ponto de condensação
Vento Visibilidade Tempo Nuvens Pressão Mudança Bruto
VFR 28°C / 23°C 330º 5kt >10km - Scattered Clouds 4400ft - KTPF 232355Z AUTO 33005KT 10SM SCT044 BKN060 OVC080 28/23 A2990 RMK AO2
VFR 29°C / 23°C 320º 5kt >10km - Scattered Clouds 4000ft - KTPF 232335Z AUTO 32005KT 10SM SCT040 BKN046 OVC070 29/23 A2989 RMK AO2
VFR 29°C / 23°C 310º 5kt >10km - Scattered Clouds 4700ft - KTPF 232315Z AUTO 31005KT 10SM SCT047 BKN070 OVC110 29/23 A2988 RMK AO2
VFR 30°C / 23°C 300º 6kt >10km - Scattered Clouds 4100ft - KTPF 232255Z AUTO 30006KT 10SM SCT041 BKN080 OVC120 30/23 A2988 RMK AO2
VFR 30°C / 24°C 290º 5kt >10km - Scattered Clouds 4600ft - KTPF 232235Z AUTO 29005KT 10SM SCT046 BKN065 OVC120 30/24 A2988 RMK AO2
VFR 30°C / 23°C 270º 4kt >10km - Broken Clouds 4500ft - KTPF 232215Z AUTO 27004KT 10SM BKN045 BKN060 OVC100 30/23 A2987 RMK AO2
VFR 30°C / 23°C 290º 5kt >10km - Scattered Clouds 4500ft - KTPF 232155Z AUTO 29005KT 10SM SCT045 SCT055 OVC100 30/23 A2987 RMK AO2
VFR 32°C / 23°C 250º 5kt >10km - Scattered Clouds 7500ft - KTPF 232135Z AUTO 25005KT 10SM SCT075 BKN090 OVC110 32/23 A2986 RMK AO2
VFR 32°C / 22°C 250º 4kt >10km - Scattered Clouds 7500ft - KTPF 232115Z AUTO 25004KT 10SM SCT075 BKN090 OVC120 32/22 A2986 RMK AO2
VFR 32°C / 22°C 260º 6kt >10km - Broken Clouds 9000ft - KTPF 232055Z AUTO 26006KT 10SM BKN090 OVC120 32/22 A2987 RMK AO2
VFR 32°C / 22°C 240º 4kt >10km - Broken Clouds 9000ft - KTPF 232035Z AUTO 24004KT 10SM BKN090 OVC120 32/22 A2987 RMK AO2
VFR 32°C / 22°C 240º 6kt >10km - Broken Clouds 10000ft - KTPF 232015Z AUTO 24006KT 10SM BKN100 OVC110 32/22 A2987 RMK AO2
VFR 32°C / 21°C 280º 4kt >10km - Broken Clouds 10000ft - KTPF 231955Z AUTO 28004KT 10SM BKN100 32/21 A2987 RMK AO2
VFR 32°C / 23°C 260º 4kt >10km - Broken Clouds 10000ft - KTPF 231935Z AUTO 26004KT 10SM BKN100 OVC110 32/23 A2987 RMK AO2
VFR 32°C / 23°C variable 0kt >10km - Scattered Clouds 8000ft - KTPF 231915Z AUTO 00000KT 10SM SCT080 OVC100 32/23 A2988 RMK AO2
VFR 32°C / 23°C variable 0kt >10km - Scattered Clouds 3200ft - KTPF 231815Z AUTO 00000KT 10SM SCT032 OVC100 32/23 A2991 RMK AO2
VFR 32°C / 23°C variable 0kt >10km - Scattered Clouds 3200ft - KTPF 231755Z AUTO 00000KT 10SM SCT032 BKN090 BKN110 32/23 A2991 RMK AO2
VFR 31°C / 23°C variable 0kt >10km - Broken Clouds 10000ft - KTPF 231735Z AUTO 00000KT 10SM BKN100 31/23 A2991 RMK AO2
VFR 30°C / 23°C 360º 3kt >10km - Overcast 10000ft - KTPF 231715Z AUTO 36003KT 10SM OVC100 30/23 A2992 RMK AO2
VFR 30°C / 23°C 50º 3kt >10km - Overcast 10000ft - KTPF 231655Z AUTO 05003KT 10SM OVC100 30/23 A2993 RMK AO2
VFR 29°C / 24°C 40º 5kt >10km - Broken Clouds 10000ft - KTPF 231635Z AUTO 04005KT 10SM BKN100 29/24 A2993 RMK AO2
VFR 28°C / 24°C 80º 3kt >10km - Clear - KTPF 231615Z AUTO 08003KT 10SM CLR 28/24 A2993 RMK AO2
VFR 28°C / 24°C 40º 4kt >10km - Scattered Clouds 1100ft - KTPF 231555Z AUTO 04004KT 10SM SCT011 SCT095 28/24 A2993 RMK AO2
MVFR 28°C / 24°C 50º 6kt >10km - Broken Clouds 1100ft - KTPF 231535Z AUTO 05006KT 10SM BKN011 BKN095 28/24 A2993 RMK AO2

VFR

28°C / 23°C

[Mais]
Vento 330º 5kt
Visibilidade >10km
Tempo -
Nuvens Scattered Clouds 4400ft
Pressão
Mudança -
Bruto KTPF 232355Z AUTO 33005KT 10SM SCT044 BKN060 OVC080 28/23 A2990 RMK AO2

VFR

29°C / 23°C

[Mais]
Vento 320º 5kt
Visibilidade >10km
Tempo -
Nuvens Scattered Clouds 4000ft
Pressão
Mudança -
Bruto KTPF 232335Z AUTO 32005KT 10SM SCT040 BKN046 OVC070 29/23 A2989 RMK AO2

VFR

29°C / 23°C

[Mais]
Vento 310º 5kt
Visibilidade >10km
Tempo -
Nuvens Scattered Clouds 4700ft
Pressão
Mudança -
Bruto KTPF 232315Z AUTO 31005KT 10SM SCT047 BKN070 OVC110 29/23 A2988 RMK AO2

VFR

30°C / 23°C

[Mais]
Vento 300º 6kt
Visibilidade >10km
Tempo -
Nuvens Scattered Clouds 4100ft
Pressão
Mudança -
Bruto KTPF 232255Z AUTO 30006KT 10SM SCT041 BKN080 OVC120 30/23 A2988 RMK AO2

VFR

30°C / 24°C

[Mais]
Vento 290º 5kt
Visibilidade >10km
Tempo -
Nuvens Scattered Clouds 4600ft
Pressão
Mudança -
Bruto KTPF 232235Z AUTO 29005KT 10SM SCT046 BKN065 OVC120 30/24 A2988 RMK AO2

VFR

30°C / 23°C

[Mais]
Vento 270º 4kt
Visibilidade >10km
Tempo -
Nuvens Broken Clouds 4500ft
Pressão
Mudança -
Bruto KTPF 232215Z AUTO 27004KT 10SM BKN045 BKN060 OVC100 30/23 A2987 RMK AO2

VFR

30°C / 23°C

[Mais]
Vento 290º 5kt
Visibilidade >10km
Tempo -
Nuvens Scattered Clouds 4500ft
Pressão
Mudança -
Bruto KTPF 232155Z AUTO 29005KT 10SM SCT045 SCT055 OVC100 30/23 A2987 RMK AO2

VFR

32°C / 23°C

[Mais]
Vento 250º 5kt
Visibilidade >10km
Tempo -
Nuvens Scattered Clouds 7500ft
Pressão
Mudança -
Bruto KTPF 232135Z AUTO 25005KT 10SM SCT075 BKN090 OVC110 32/23 A2986 RMK AO2

VFR

32°C / 22°C

[Mais]
Vento 250º 4kt
Visibilidade >10km
Tempo -
Nuvens Scattered Clouds 7500ft
Pressão
Mudança -
Bruto KTPF 232115Z AUTO 25004KT 10SM SCT075 BKN090 OVC120 32/22 A2986 RMK AO2

VFR

32°C / 22°C

[Mais]
Vento 260º 6kt
Visibilidade >10km
Tempo -
Nuvens Broken Clouds 9000ft
Pressão
Mudança -
Bruto KTPF 232055Z AUTO 26006KT 10SM BKN090 OVC120 32/22 A2987 RMK AO2

VFR

32°C / 22°C

[Mais]
Vento 240º 4kt
Visibilidade >10km
Tempo -
Nuvens Broken Clouds 9000ft
Pressão
Mudança -
Bruto KTPF 232035Z AUTO 24004KT 10SM BKN090 OVC120 32/22 A2987 RMK AO2

VFR

32°C / 22°C

[Mais]
Vento 240º 6kt
Visibilidade >10km
Tempo -
Nuvens Broken Clouds 10000ft
Pressão
Mudança -
Bruto KTPF 232015Z AUTO 24006KT 10SM BKN100 OVC110 32/22 A2987 RMK AO2

VFR

32°C / 21°C

[Mais]
Vento 280º 4kt
Visibilidade >10km
Tempo -
Nuvens Broken Clouds 10000ft
Pressão
Mudança -
Bruto KTPF 231955Z AUTO 28004KT 10SM BKN100 32/21 A2987 RMK AO2

VFR

32°C / 23°C

[Mais]
Vento 260º 4kt
Visibilidade >10km
Tempo -
Nuvens Broken Clouds 10000ft
Pressão
Mudança -
Bruto KTPF 231935Z AUTO 26004KT 10SM BKN100 OVC110 32/23 A2987 RMK AO2

VFR

32°C / 23°C

[Mais]
Vento variable 0kt
Visibilidade >10km
Tempo -
Nuvens Scattered Clouds 8000ft
Pressão
Mudança -
Bruto KTPF 231915Z AUTO 00000KT 10SM SCT080 OVC100 32/23 A2988 RMK AO2

VFR

32°C / 23°C

[Mais]
Vento variable 0kt
Visibilidade >10km
Tempo -
Nuvens Scattered Clouds 3200ft
Pressão
Mudança -
Bruto KTPF 231815Z AUTO 00000KT 10SM SCT032 OVC100 32/23 A2991 RMK AO2

VFR

32°C / 23°C

[Mais]
Vento variable 0kt
Visibilidade >10km
Tempo -
Nuvens Scattered Clouds 3200ft
Pressão
Mudança -
Bruto KTPF 231755Z AUTO 00000KT 10SM SCT032 BKN090 BKN110 32/23 A2991 RMK AO2

VFR

31°C / 23°C

[Mais]
Vento variable 0kt
Visibilidade >10km
Tempo -
Nuvens Broken Clouds 10000ft
Pressão
Mudança -
Bruto KTPF 231735Z AUTO 00000KT 10SM BKN100 31/23 A2991 RMK AO2

VFR

30°C / 23°C

[Mais]
Vento 360º 3kt
Visibilidade >10km
Tempo -
Nuvens Overcast 10000ft
Pressão
Mudança -
Bruto KTPF 231715Z AUTO 36003KT 10SM OVC100 30/23 A2992 RMK AO2

VFR

30°C / 23°C

[Mais]
Vento 50º 3kt
Visibilidade >10km
Tempo -
Nuvens Overcast 10000ft
Pressão
Mudança -
Bruto KTPF 231655Z AUTO 05003KT 10SM OVC100 30/23 A2993 RMK AO2

VFR

29°C / 24°C

[Mais]
Vento 40º 5kt
Visibilidade >10km
Tempo -
Nuvens Broken Clouds 10000ft
Pressão
Mudança -
Bruto KTPF 231635Z AUTO 04005KT 10SM BKN100 29/24 A2993 RMK AO2

VFR

28°C / 24°C

[Mais]
Vento 80º 3kt
Visibilidade >10km
Tempo -
Nuvens Clear
Pressão
Mudança -
Bruto KTPF 231615Z AUTO 08003KT 10SM CLR 28/24 A2993 RMK AO2

VFR

28°C / 24°C

[Mais]
Vento 40º 4kt
Visibilidade >10km
Tempo -
Nuvens Scattered Clouds 1100ft
Pressão
Mudança -
Bruto KTPF 231555Z AUTO 04004KT 10SM SCT011 SCT095 28/24 A2993 RMK AO2

MVFR

28°C / 24°C

[Mais]
Vento 50º 6kt
Visibilidade >10km
Tempo -
Nuvens Broken Clouds 1100ft
Pressão
Mudança -
Bruto KTPF 231535Z AUTO 05006KT 10SM BKN011 BKN095 28/24 A2993 RMK AO2

Imagens de satélite atuais para Tampa, Estados Unidos

O marcador de lugar é colocado em Tampa. [Mais]

A imagem de satélite em tempo real combina luz visível durante o dia com radiação infravermelha durante a noite. À noite, a imagem não é escura, pois a radiação infravermelha pode detectar diferenças de temperatura. Infelizmente, nuvens baixas e neblina são difíceis de distinguir das temperaturas do solo e, portanto, podem ser quase invisíveis durante a noite. As imagens de satélite Meteosat para a Europa são atualizadas em tempo real a cada 5 minutos. GOES-16/GOES-17 ( América do Norte e do Sul) e Himawari (Ásia) são atualizadas a cada 10 minutos.

Radar e precipitação nowcast para Tampa

Chuvisco
Leve
Moderado
Forte
Muito forte
Granizo

O marcador do lugar é colocado em Tampa. Esta animação mostra o radar de precipitação para a última hora, assim como a 1h previsão. A queda de neve pode ser invisível para o radar. A intensidade da precipitação é codificada por cores, variando do azul claro ao laranja.